sensor_id;sensor_type;location;lat;lon;timestamp;P1;durP1;ratioP1;P2;durP2;ratioP2
29240;SDS011;16268;49.880;8.648;2022-12-18T00:02:12;56.20;;;25.70;;
29240;SDS011;16268;49.880;8.648;2022-12-18T00:04:37;56.03;;;25.47;;
29240;SDS011;16268;49.880;8.648;2022-12-18T00:07:03;61.30;;;26.90;;
29240;SDS011;16268;49.880;8.648;2022-12-18T00:09:29;53.20;;;25.27;;
29240;SDS011;16268;49.880;8.648;2022-12-18T00:11:54;54.27;;;25.93;;
29240;SDS011;16268;49.880;8.648;2022-12-18T00:14:20;67.13;;;29.10;;
29240;SDS011;16268;49.880;8.648;2022-12-18T00:16:45;55.37;;;25.60;;
29240;SDS011;16268;49.880;8.648;2022-12-18T00:19:12;58.40;;;25.47;;
29240;SDS011;16268;49.880;8.648;2022-12-18T00:21:38;59.73;;;26.00;;
29240;SDS011;16268;49.880;8.648;2022-12-18T00:24:04;55.53;;;25.07;;
29240;SDS011;16268;49.880;8.648;2022-12-18T00:26:31;54.67;;;25.77;;
29240;SDS011;16268;49.880;8.648;2022-12-18T00:28:58;54.60;;;25.70;;
29240;SDS011;16268;49.880;8.648;2022-12-18T00:31:25;56.17;;;26.20;;
29240;SDS011;16268;49.880;8.648;2022-12-18T00:33:53;55.83;;;26.07;;
29240;SDS011;16268;49.880;8.648;2022-12-18T00:36:20;61.00;;;25.63;;
29240;SDS011;16268;49.880;8.648;2022-12-18T00:38:48;56.10;;;25.93;;
29240;SDS011;16268;49.880;8.648;2022-12-18T00:41:14;55.93;;;25.77;;
29240;SDS011;16268;49.880;8.648;2022-12-18T00:43:59;57.60;;;25.13;;
29240;SDS011;16268;49.880;8.648;2022-12-18T00:46:25;63.53;;;27.07;;
29240;SDS011;16268;49.880;8.648;2022-12-18T00:48:51;60.30;;;27.13;;
29240;SDS011;16268;49.880;8.648;2022-12-18T00:51:16;63.07;;;27.57;;
29240;SDS011;16268;49.880;8.648;2022-12-18T00:53:42;56.53;;;26.83;;
29240;SDS011;16268;49.880;8.648;2022-12-18T00:56:07;59.17;;;26.23;;
29240;SDS011;16268;49.880;8.648;2022-12-18T00:58:33;62.53;;;27.57;;
29240;SDS011;16268;49.880;8.648;2022-12-18T01:00:59;53.63;;;27.43;;
29240;SDS011;16268;49.880;8.648;2022-12-18T01:03:24;61.93;;;26.37;;
29240;SDS011;16268;49.880;8.648;2022-12-18T01:05:50;57.07;;;25.63;;
29240;SDS011;16268;49.880;8.648;2022-12-18T01:08:15;61.53;;;27.13;;
29240;SDS011;16268;49.880;8.648;2022-12-18T01:10:41;60.13;;;27.17;;
29240;SDS011;16268;49.880;8.648;2022-12-18T01:13:06;60.87;;;27.27;;
29240;SDS011;16268;49.880;8.648;2022-12-18T01:15:32;55.07;;;26.13;;
29240;SDS011;16268;49.880;8.648;2022-12-18T01:17:57;54.47;;;25.90;;
29240;SDS011;16268;49.880;8.648;2022-12-18T01:20:23;57.60;;;27.50;;
29240;SDS011;16268;49.880;8.648;2022-12-18T01:22:48;57.53;;;25.53;;
29240;SDS011;16268;49.880;8.648;2022-12-18T01:25:14;55.43;;;26.43;;
29240;SDS011;16268;49.880;8.648;2022-12-18T01:27:39;59.03;;;25.93;;
29240;SDS011;16268;49.880;8.648;2022-12-18T01:30:05;58.50;;;25.80;;
29240;SDS011;16268;49.880;8.648;2022-12-18T01:32:31;60.93;;;25.73;;
29240;SDS011;16268;49.880;8.648;2022-12-18T01:34:57;59.27;;;26.93;;
29240;SDS011;16268;49.880;8.648;2022-12-18T01:37:22;53.53;;;26.17;;
29240;SDS011;16268;49.880;8.648;2022-12-18T01:39:48;61.00;;;26.93;;
29240;SDS011;16268;49.880;8.648;2022-12-18T01:42:14;56.83;;;26.77;;
29240;SDS011;16268;49.880;8.648;2022-12-18T01:44:58;53.70;;;25.50;;
29240;SDS011;16268;49.880;8.648;2022-12-18T01:50:25;54.93;;;26.13;;
29240;SDS011;16268;49.880;8.648;2022-12-18T01:53:07;57.90;;;26.37;;
29240;SDS011;16268;49.880;8.648;2022-12-18T01:55:38;56.60;;;25.43;;
29240;SDS011;16268;49.880;8.648;2022-12-18T01:58:07;56.23;;;26.90;;
29240;SDS011;16268;49.880;8.648;2022-12-18T02:00:33;57.83;;;26.80;;
29240;SDS011;16268;49.880;8.648;2022-12-18T02:02:59;58.37;;;27.50;;
29240;SDS011;16268;49.880;8.648;2022-12-18T02:10:53;63.37;;;27.10;;
29240;SDS011;16268;49.880;8.648;2022-12-18T02:16:40;59.60;;;26.17;;
29240;SDS011;16268;49.880;8.648;2022-12-18T02:27:10;60.67;;;26.73;;
29240;SDS011;16268;49.880;8.648;2022-12-18T02:29:38;62.50;;;29.13;;
29240;SDS011;16268;49.880;8.648;2022-12-18T02:32:12;57.77;;;27.40;;
29240;SDS011;16268;49.880;8.648;2022-12-18T02:34:41;58.23;;;27.33;;
29240;SDS011;16268;49.880;8.648;2022-12-18T02:37:10;58.17;;;26.97;;
29240;SDS011;16268;49.880;8.648;2022-12-18T02:39:39;56.63;;;27.60;;
29240;SDS011;16268;49.880;8.648;2022-12-18T02:44:34;55.50;;;26.67;;
29240;SDS011;16268;49.880;8.648;2022-12-18T02:47:08;54.17;;;27.03;;
29240;SDS011;16268;49.880;8.648;2022-12-18T02:52:16;59.87;;;27.20;;
29240;SDS011;16268;49.880;8.648;2022-12-18T03:00:18;56.30;;;26.93;;
29240;SDS011;16268;49.880;8.648;2022-12-18T03:03:25;54.38;;;25.25;;
29240;SDS011;16268;49.880;8.648;2022-12-18T03:06:03;54.07;;;26.00;;
29240;SDS011;16268;49.880;8.648;2022-12-18T03:08:37;59.73;;;26.83;;
29240;SDS011;16268;49.880;8.648;2022-12-18T03:11:07;56.80;;;26.63;;
29240;SDS011;16268;49.880;8.648;2022-12-18T03:13:36;55.10;;;26.90;;
29240;SDS011;16268;49.880;8.648;2022-12-18T03:16:02;55.37;;;26.70;;
29240;SDS011;16268;49.880;8.648;2022-12-18T03:18:33;55.93;;;26.57;;
29240;SDS011;16268;49.880;8.648;2022-12-18T03:21:04;52.93;;;25.23;;
29240;SDS011;16268;49.880;8.648;2022-12-18T03:23:40;57.83;;;26.07;;
29240;SDS011;16268;49.880;8.648;2022-12-18T03:26:10;55.87;;;26.43;;
29240;SDS011;16268;49.880;8.648;2022-12-18T03:28:40;51.93;;;25.07;;
29240;SDS011;16268;49.880;8.648;2022-12-18T03:31:11;58.03;;;27.33;;
29240;SDS011;16268;49.880;8.648;2022-12-18T03:33:54;61.28;;;27.73;;
29240;SDS011;16268;49.880;8.648;2022-12-18T03:36:22;57.57;;;26.07;;
29240;SDS011;16268;49.880;8.648;2022-12-18T03:38:48;56.87;;;25.97;;
29240;SDS011;16268;49.880;8.648;2022-12-18T03:41:31;55.37;;;25.87;;
29240;SDS011;16268;49.880;8.648;2022-12-18T03:46:54;54.90;;;25.73;;
29240;SDS011;16268;49.880;8.648;2022-12-18T03:52:13;55.30;;;25.50;;
29240;SDS011;16268;49.880;8.648;2022-12-18T03:54:45;55.13;;;26.20;;
29240;SDS011;16268;49.880;8.648;2022-12-18T03:57:21;51.70;;;25.10;;
29240;SDS011;16268;49.880;8.648;2022-12-18T03:59:50;55.90;;;25.50;;
29240;SDS011;16268;49.880;8.648;2022-12-18T04:02:20;52.13;;;24.83;;
29240;SDS011;16268;49.880;8.648;2022-12-18T04:04:48;54.77;;;25.90;;
29240;SDS011;16268;49.880;8.648;2022-12-18T04:07:21;56.23;;;25.80;;
29240;SDS011;16268;49.880;8.648;2022-12-18T04:09:48;51.80;;;26.70;;
29240;SDS011;16268;49.880;8.648;2022-12-18T04:12:16;55.30;;;26.95;;
29240;SDS011;16268;49.880;8.648;2022-12-18T04:14:42;54.20;;;25.43;;
29240;SDS011;16268;49.880;8.648;2022-12-18T04:17:08;57.13;;;26.13;;
29240;SDS011;16268;49.880;8.648;2022-12-18T04:19:33;58.83;;;26.03;;
29240;SDS011;16268;49.880;8.648;2022-12-18T04:21:59;54.67;;;26.70;;
29240;SDS011;16268;49.880;8.648;2022-12-18T04:24:24;55.97;;;26.00;;
29240;SDS011;16268;49.880;8.648;2022-12-18T04:26:50;53.77;;;25.10;;
29240;SDS011;16268;49.880;8.648;2022-12-18T04:29:16;57.77;;;27.07;;
29240;SDS011;16268;49.880;8.648;2022-12-18T04:31:41;60.10;;;26.57;;
29240;SDS011;16268;49.880;8.648;2022-12-18T04:34:06;57.73;;;26.07;;
29240;SDS011;16268;49.880;8.648;2022-12-18T04:36:32;54.53;;;25.63;;
29240;SDS011;16268;49.880;8.648;2022-12-18T04:38:58;55.20;;;25.83;;
29240;SDS011;16268;49.880;8.648;2022-12-18T04:41:23;58.93;;;26.57;;
29240;SDS011;16268;49.880;8.648;2022-12-18T04:43:49;54.03;;;26.07;;
29240;SDS011;16268;49.880;8.648;2022-12-18T04:46:14;57.83;;;26.00;;
29240;SDS011;16268;49.880;8.648;2022-12-18T04:48:40;59.10;;;26.07;;
29240;SDS011;16268;49.880;8.648;2022-12-18T04:51:05;56.03;;;25.30;;
29240;SDS011;16268;49.880;8.648;2022-12-18T04:53:31;52.97;;;25.83;;
29240;SDS011;16268;49.880;8.648;2022-12-18T04:56:04;60.27;;;27.13;;
29240;SDS011;16268;49.880;8.648;2022-12-18T04:58:30;57.17;;;25.80;;
29240;SDS011;16268;49.880;8.648;2022-12-18T05:00:55;52.60;;;26.07;;
29240;SDS011;16268;49.880;8.648;2022-12-18T05:03:21;53.83;;;25.90;;
29240;SDS011;16268;49.880;8.648;2022-12-18T05:05:50;55.57;;;25.40;;
29240;SDS011;16268;49.880;8.648;2022-12-18T05:08:16;53.80;;;26.27;;
29240;SDS011;16268;49.880;8.648;2022-12-18T05:10:41;52.63;;;24.80;;
29240;SDS011;16268;49.880;8.648;2022-12-18T05:13:07;54.90;;;25.57;;
29240;SDS011;16268;49.880;8.648;2022-12-18T05:15:33;49.97;;;24.07;;
29240;SDS011;16268;49.880;8.648;2022-12-18T05:17:59;54.77;;;25.47;;
29240;SDS011;16268;49.880;8.648;2022-12-18T05:20:25;52.77;;;25.93;;
29240;SDS011;16268;49.880;8.648;2022-12-18T05:22:51;52.13;;;24.57;;
29240;SDS011;16268;49.880;8.648;2022-12-18T05:25:18;45.23;;;25.10;;
29240;SDS011;16268;49.880;8.648;2022-12-18T05:27:44;51.40;;;25.03;;
29240;SDS011;16268;49.880;8.648;2022-12-18T05:30:10;53.57;;;25.70;;
29240;SDS011;16268;49.880;8.648;2022-12-18T05:32:36;53.27;;;25.80;;
29240;SDS011;16268;49.880;8.648;2022-12-18T05:35:02;55.50;;;25.87;;
29240;SDS011;16268;49.880;8.648;2022-12-18T05:37:28;56.63;;;26.43;;
29240;SDS011;16268;49.880;8.648;2022-12-18T05:39:53;54.07;;;25.47;;
29240;SDS011;16268;49.880;8.648;2022-12-18T05:42:19;55.07;;;26.40;;
29240;SDS011;16268;49.880;8.648;2022-12-18T05:44:45;51.83;;;26.27;;
29240;SDS011;16268;49.880;8.648;2022-12-18T05:47:10;58.77;;;27.33;;
29240;SDS011;16268;49.880;8.648;2022-12-18T05:49:36;55.73;;;26.53;;
29240;SDS011;16268;49.880;8.648;2022-12-18T05:52:01;64.57;;;27.30;;
29240;SDS011;16268;49.880;8.648;2022-12-18T05:54:27;51.30;;;25.80;;
29240;SDS011;16268;49.880;8.648;2022-12-18T05:56:53;57.10;;;26.03;;
29240;SDS011;16268;49.880;8.648;2022-12-18T05:59:19;52.93;;;25.70;;
29240;SDS011;16268;49.880;8.648;2022-12-18T06:01:45;55.27;;;25.77;;
29240;SDS011;16268;49.880;8.648;2022-12-18T06:04:10;53.20;;;26.13;;
29240;SDS011;16268;49.880;8.648;2022-12-18T06:06:36;53.33;;;26.03;;
29240;SDS011;16268;49.880;8.648;2022-12-18T06:09:03;54.00;;;26.33;;
29240;SDS011;16268;49.880;8.648;2022-12-18T06:11:33;55.33;;;25.43;;
29240;SDS011;16268;49.880;8.648;2022-12-18T06:13:59;55.57;;;27.50;;
29240;SDS011;16268;49.880;8.648;2022-12-18T06:16:26;57.33;;;27.17;;
29240;SDS011;16268;49.880;8.648;2022-12-18T06:18:53;47.97;;;25.03;;
29240;SDS011;16268;49.880;8.648;2022-12-18T06:21:21;53.27;;;24.90;;
29240;SDS011;16268;49.880;8.648;2022-12-18T06:23:46;55.40;;;26.57;;
29240;SDS011;16268;49.880;8.648;2022-12-18T06:26:12;55.80;;;25.67;;
29240;SDS011;16268;49.880;8.648;2022-12-18T06:28:38;55.13;;;26.10;;
29240;SDS011;16268;49.880;8.648;2022-12-18T06:31:04;57.07;;;26.87;;
29240;SDS011;16268;49.880;8.648;2022-12-18T06:33:30;55.83;;;26.53;;
29240;SDS011;16268;49.880;8.648;2022-12-18T06:36:04;53.10;;;27.20;;
29240;SDS011;16268;49.880;8.648;2022-12-18T06:38:32;53.27;;;25.07;;
29240;SDS011;16268;49.880;8.648;2022-12-18T06:40:58;59.83;;;27.27;;
29240;SDS011;16268;49.880;8.648;2022-12-18T06:43:24;61.17;;;27.50;;
29240;SDS011;16268;49.880;8.648;2022-12-18T06:45:50;58.33;;;25.67;;
29240;SDS011;16268;49.880;8.648;2022-12-18T06:48:20;52.53;;;26.70;;
29240;SDS011;16268;49.880;8.648;2022-12-18T06:50:46;53.78;;;27.17;;
29240;SDS011;16268;49.880;8.648;2022-12-18T06:53:12;54.30;;;27.03;;
29240;SDS011;16268;49.880;8.648;2022-12-18T06:55:37;51.73;;;25.47;;
29240;SDS011;16268;49.880;8.648;2022-12-18T06:58:03;52.90;;;26.23;;
29240;SDS011;16268;49.880;8.648;2022-12-18T07:00:28;49.57;;;26.23;;
29240;SDS011;16268;49.880;8.648;2022-12-18T07:02:54;55.73;;;27.50;;
29240;SDS011;16268;49.880;8.648;2022-12-18T07:05:20;53.57;;;26.17;;
29240;SDS011;16268;49.880;8.648;2022-12-18T07:07:45;53.83;;;26.03;;
29240;SDS011;16268;49.880;8.648;2022-12-18T07:10:11;61.63;;;27.23;;
29240;SDS011;16268;49.880;8.648;2022-12-18T07:12:36;51.27;;;25.07;;
29240;SDS011;16268;49.880;8.648;2022-12-18T07:15:02;53.07;;;26.23;;
29240;SDS011;16268;49.880;8.648;2022-12-18T07:17:28;54.63;;;26.07;;
29240;SDS011;16268;49.880;8.648;2022-12-18T07:19:54;51.60;;;25.67;;
29240;SDS011;16268;49.880;8.648;2022-12-18T07:22:20;54.90;;;26.50;;
29240;SDS011;16268;49.880;8.648;2022-12-18T07:24:45;50.43;;;25.53;;
29240;SDS011;16268;49.880;8.648;2022-12-18T07:27:11;48.70;;;24.60;;
29240;SDS011;16268;49.880;8.648;2022-12-18T07:29:36;53.93;;;24.87;;
29240;SDS011;16268;49.880;8.648;2022-12-18T07:32:02;54.50;;;25.60;;
29240;SDS011;16268;49.880;8.648;2022-12-18T07:34:28;55.73;;;25.43;;
29240;SDS011;16268;49.880;8.648;2022-12-18T07:36:53;58.77;;;25.00;;
29240;SDS011;16268;49.880;8.648;2022-12-18T07:39:19;51.10;;;23.60;;
29240;SDS011;16268;49.880;8.648;2022-12-18T07:41:44;54.13;;;25.10;;
29240;SDS011;16268;49.880;8.648;2022-12-18T07:44:33;52.33;;;24.13;;
29240;SDS011;16268;49.880;8.648;2022-12-18T07:46:58;57.63;;;24.47;;
29240;SDS011;16268;49.880;8.648;2022-12-18T07:49:24;53.63;;;23.87;;
29240;SDS011;16268;49.880;8.648;2022-12-18T07:51:49;50.53;;;24.00;;
29240;SDS011;16268;49.880;8.648;2022-12-18T07:54:15;51.33;;;24.70;;
29240;SDS011;16268;49.880;8.648;2022-12-18T07:56:41;47.73;;;23.10;;
29240;SDS011;16268;49.880;8.648;2022-12-18T07:59:06;50.10;;;23.20;;
29240;SDS011;16268;49.880;8.648;2022-12-18T08:01:32;55.97;;;23.73;;
29240;SDS011;16268;49.880;8.648;2022-12-18T08:03:59;49.83;;;23.70;;
29240;SDS011;16268;49.880;8.648;2022-12-18T08:06:24;50.17;;;24.10;;
29240;SDS011;16268;49.880;8.648;2022-12-18T08:08:53;53.37;;;22.83;;
29240;SDS011;16268;49.880;8.648;2022-12-18T08:11:21;56.97;;;23.47;;
29240;SDS011;16268;49.880;8.648;2022-12-18T08:13:47;55.17;;;24.43;;
29240;SDS011;16268;49.880;8.648;2022-12-18T08:16:13;50.50;;;23.27;;
29240;SDS011;16268;49.880;8.648;2022-12-18T08:18:38;52.07;;;22.90;;
29240;SDS011;16268;49.880;8.648;2022-12-18T08:23:37;49.83;;;21.93;;
29240;SDS011;16268;49.880;8.648;2022-12-18T08:26:02;50.10;;;23.83;;
29240;SDS011;16268;49.880;8.648;2022-12-18T08:28:28;58.67;;;24.80;;
29240;SDS011;16268;49.880;8.648;2022-12-18T08:30:54;55.13;;;23.97;;
29240;SDS011;16268;49.880;8.648;2022-12-18T08:33:19;54.80;;;23.70;;
29240;SDS011;16268;49.880;8.648;2022-12-18T08:35:45;55.53;;;23.70;;
29240;SDS011;16268;49.880;8.648;2022-12-18T08:38:10;54.03;;;24.93;;
29240;SDS011;16268;49.880;8.648;2022-12-18T08:40:36;53.93;;;25.13;;
29240;SDS011;16268;49.880;8.648;2022-12-18T08:43:02;56.03;;;24.90;;
29240;SDS011;16268;49.880;8.648;2022-12-18T08:45:46;53.00;;;23.67;;
29240;SDS011;16268;49.880;8.648;2022-12-18T08:48:11;51.33;;;23.83;;
29240;SDS011;16268;49.880;8.648;2022-12-18T08:50:37;51.27;;;24.10;;
29240;SDS011;16268;49.880;8.648;2022-12-18T08:53:03;52.90;;;24.97;;
29240;SDS011;16268;49.880;8.648;2022-12-18T08:55:28;54.60;;;26.13;;
29240;SDS011;16268;49.880;8.648;2022-12-18T08:57:54;55.00;;;25.63;;
29240;SDS011;16268;49.880;8.648;2022-12-18T09:00:20;52.00;;;26.10;;
29240;SDS011;16268;49.880;8.648;2022-12-18T09:02:45;57.33;;;26.67;;
29240;SDS011;16268;49.880;8.648;2022-12-18T09:05:11;53.37;;;26.93;;
29240;SDS011;16268;49.880;8.648;2022-12-18T09:07:36;54.70;;;25.73;;
29240;SDS011;16268;49.880;8.648;2022-12-18T09:10:02;57.60;;;25.47;;
29240;SDS011;16268;49.880;8.648;2022-12-18T09:12:28;54.23;;;26.30;;
29240;SDS011;16268;49.880;8.648;2022-12-18T09:14:54;55.57;;;26.83;;
29240;SDS011;16268;49.880;8.648;2022-12-18T09:17:21;49.53;;;25.13;;
29240;SDS011;16268;49.880;8.648;2022-12-18T09:19:47;56.50;;;26.50;;
29240;SDS011;16268;49.880;8.648;2022-12-18T09:22:12;52.63;;;26.77;;
29240;SDS011;16268;49.880;8.648;2022-12-18T09:24:38;51.47;;;26.53;;
29240;SDS011;16268;49.880;8.648;2022-12-18T09:27:03;48.10;;;24.97;;
29240;SDS011;16268;49.880;8.648;2022-12-18T09:29:29;53.40;;;26.27;;
29240;SDS011;16268;49.880;8.648;2022-12-18T09:31:54;50.77;;;25.20;;
29240;SDS011;16268;49.880;8.648;2022-12-18T09:34:20;46.67;;;24.67;;
29240;SDS011;16268;49.880;8.648;2022-12-18T09:36:47;47.47;;;25.53;;
29240;SDS011;16268;49.880;8.648;2022-12-18T09:39:12;46.27;;;24.57;;
29240;SDS011;16268;49.880;8.648;2022-12-18T09:44:14;49.00;;;25.20;;
29240;SDS011;16268;49.880;8.648;2022-12-18T09:46:53;48.97;;;25.20;;
29240;SDS011;16268;49.880;8.648;2022-12-18T09:49:28;46.87;;;25.57;;
29240;SDS011;16268;49.880;8.648;2022-12-18T09:52:04;50.28;;;25.58;;
29240;SDS011;16268;49.880;8.648;2022-12-18T09:55:01;50.77;;;26.07;;
29240;SDS011;16268;49.880;8.648;2022-12-18T09:57:35;52.00;;;26.60;;
29240;SDS011;16268;49.880;8.648;2022-12-18T10:00:16;52.93;;;27.10;;
29240;SDS011;16268;49.880;8.648;2022-12-18T10:02:45;49.40;;;25.50;;
29240;SDS011;16268;49.880;8.648;2022-12-18T10:05:12;51.33;;;26.73;;
29240;SDS011;16268;49.880;8.648;2022-12-18T10:10:47;55.17;;;27.30;;
29240;SDS011;16268;49.880;8.648;2022-12-18T10:13:19;51.67;;;26.17;;
29240;SDS011;16268;49.880;8.648;2022-12-18T10:27:17;55.00;;;26.13;;
29240;SDS011;16268;49.880;8.648;2022-12-18T10:29:46;50.97;;;25.87;;
29240;SDS011;16268;49.880;8.648;2022-12-18T10:32:16;52.97;;;26.07;;
29240;SDS011;16268;49.880;8.648;2022-12-18T10:34:45;53.53;;;26.63;;
29240;SDS011;16268;49.880;8.648;2022-12-18T10:37:14;53.73;;;26.60;;
29240;SDS011;16268;49.880;8.648;2022-12-18T10:39:42;57.40;;;28.20;;
29240;SDS011;16268;49.880;8.648;2022-12-18T10:42:15;61.77;;;27.80;;
29240;SDS011;16268;49.880;8.648;2022-12-18T10:44:43;58.90;;;27.63;;
29240;SDS011;16268;49.880;8.648;2022-12-18T10:47:11;60.83;;;28.80;;
29240;SDS011;16268;49.880;8.648;2022-12-18T10:49:50;58.23;;;27.17;;
29240;SDS011;16268;49.880;8.648;2022-12-18T10:52:21;55.40;;;27.87;;
29240;SDS011;16268;49.880;8.648;2022-12-18T10:59:56;60.43;;;26.67;;
29240;SDS011;16268;49.880;8.648;2022-12-18T11:02:25;57.13;;;26.77;;
29240;SDS011;16268;49.880;8.648;2022-12-18T11:05:01;66.13;;;29.87;;
29240;SDS011;16268;49.880;8.648;2022-12-18T11:07:46;56.23;;;26.50;;
29240;SDS011;16268;49.880;8.648;2022-12-18T11:10:19;62.13;;;28.17;;
29240;SDS011;16268;49.880;8.648;2022-12-18T11:12:47;61.07;;;27.37;;
29240;SDS011;16268;49.880;8.648;2022-12-18T11:15:16;61.53;;;27.63;;
29240;SDS011;16268;49.880;8.648;2022-12-18T11:17:47;61.23;;;27.40;;
29240;SDS011;16268;49.880;8.648;2022-12-18T11:20:19;60.63;;;26.67;;
29240;SDS011;16268;49.880;8.648;2022-12-18T11:23:01;62.33;;;26.83;;
29240;SDS011;16268;49.880;8.648;2022-12-18T11:25:31;60.70;;;27.23;;
29240;SDS011;16268;49.880;8.648;2022-12-18T11:27:59;61.77;;;28.60;;
29240;SDS011;16268;49.880;8.648;2022-12-18T11:30:30;63.77;;;31.13;;
29240;SDS011;16268;49.880;8.648;2022-12-18T11:32:59;59.73;;;26.33;;
29240;SDS011;16268;49.880;8.648;2022-12-18T11:35:41;63.00;;;27.93;;
29240;SDS011;16268;49.880;8.648;2022-12-18T11:38:13;56.43;;;27.13;;
29240;SDS011;16268;49.880;8.648;2022-12-18T11:40:43;62.60;;;27.47;;
29240;SDS011;16268;49.880;8.648;2022-12-18T11:43:16;60.42;;;25.30;;
29240;SDS011;16268;49.880;8.648;2022-12-18T11:45:51;62.50;;;28.80;;
29240;SDS011;16268;49.880;8.648;2022-12-18T11:48:22;69.33;;;28.30;;
29240;SDS011;16268;49.880;8.648;2022-12-18T11:50:55;61.70;;;27.00;;
29240;SDS011;16268;49.880;8.648;2022-12-18T11:53:24;66.90;;;28.73;;
29240;SDS011;16268;49.880;8.648;2022-12-18T11:56:00;64.30;;;27.83;;
29240;SDS011;16268;49.880;8.648;2022-12-18T12:01:29;64.27;;;27.90;;
29240;SDS011;16268;49.880;8.648;2022-12-18T12:15:41;63.03;;;28.03;;
29240;SDS011;16268;49.880;8.648;2022-12-18T12:21:28;66.23;;;27.83;;
29240;SDS011;16268;49.880;8.648;2022-12-18T12:26:45;61.23;;;27.07;;
29240;SDS011;16268;49.880;8.648;2022-12-18T12:29:26;66.00;;;28.17;;
29240;SDS011;16268;49.880;8.648;2022-12-18T12:32:01;67.43;;;29.27;;
29240;SDS011;16268;49.880;8.648;2022-12-18T12:40:06;61.30;;;26.73;;
29240;SDS011;16268;49.880;8.648;2022-12-18T12:42:34;64.33;;;26.90;;
29240;SDS011;16268;49.880;8.648;2022-12-18T12:45:34;67.37;;;29.27;;
29240;SDS011;16268;49.880;8.648;2022-12-18T12:48:04;65.87;;;27.97;;
29240;SDS011;16268;49.880;8.648;2022-12-18T12:50:34;64.60;;;27.83;;
29240;SDS011;16268;49.880;8.648;2022-12-18T12:53:01;68.43;;;27.93;;
29240;SDS011;16268;49.880;8.648;2022-12-18T12:55:32;65.83;;;28.27;;
29240;SDS011;16268;49.880;8.648;2022-12-18T12:58:06;67.07;;;28.00;;
29240;SDS011;16268;49.880;8.648;2022-12-18T13:01:08;65.50;;;28.07;;
29240;SDS011;16268;49.880;8.648;2022-12-18T13:07:33;63.53;;;27.00;;
29240;SDS011;16268;49.880;8.648;2022-12-18T13:12:54;63.77;;;26.83;;
29240;SDS011;16268;49.880;8.648;2022-12-18T13:15:33;65.60;;;27.93;;
29240;SDS011;16268;49.880;8.648;2022-12-18T13:20:34;64.53;;;27.38;;
29240;SDS011;16268;49.880;8.648;2022-12-18T13:23:17;66.77;;;26.83;;
29240;SDS011;16268;49.880;8.648;2022-12-18T13:33:40;64.80;;;26.47;;
29240;SDS011;16268;49.880;8.648;2022-12-18T13:36:25;65.93;;;28.08;;
29240;SDS011;16268;49.880;8.648;2022-12-18T13:41:44;63.00;;;27.13;;
29240;SDS011;16268;49.880;8.648;2022-12-18T13:46:42;65.13;;;27.20;;
29240;SDS011;16268;49.880;8.648;2022-12-18T13:51:38;61.70;;;25.77;;
29240;SDS011;16268;49.880;8.648;2022-12-18T13:54:21;59.97;;;25.80;;
29240;SDS011;16268;49.880;8.648;2022-12-18T13:57:01;62.53;;;26.33;;
29240;SDS011;16268;49.880;8.648;2022-12-18T13:59:34;59.13;;;25.47;;
29240;SDS011;16268;49.880;8.648;2022-12-18T14:02:07;63.53;;;27.20;;
29240;SDS011;16268;49.880;8.648;2022-12-18T14:04:39;66.00;;;25.87;;
29240;SDS011;16268;49.880;8.648;2022-12-18T14:07:05;56.97;;;24.63;;
29240;SDS011;16268;49.880;8.648;2022-12-18T14:09:36;56.93;;;27.53;;
29240;SDS011;16268;49.880;8.648;2022-12-18T14:12:06;64.47;;;25.30;;
29240;SDS011;16268;49.880;8.648;2022-12-18T14:14:56;60.83;;;25.87;;
29240;SDS011;16268;49.880;8.648;2022-12-18T14:17:25;60.83;;;26.83;;
29240;SDS011;16268;49.880;8.648;2022-12-18T14:19:51;61.75;;;25.83;;
29240;SDS011;16268;49.880;8.648;2022-12-18T14:22:18;61.40;;;25.57;;
29240;SDS011;16268;49.880;8.648;2022-12-18T14:24:47;55.17;;;24.83;;
29240;SDS011;16268;49.880;8.648;2022-12-18T14:27:29;56.93;;;24.53;;
29240;SDS011;16268;49.880;8.648;2022-12-18T14:29:55;62.53;;;25.33;;
29240;SDS011;16268;49.880;8.648;2022-12-18T14:32:20;58.53;;;24.40;;
29240;SDS011;16268;49.880;8.648;2022-12-18T14:34:52;60.63;;;25.63;;
29240;SDS011;16268;49.880;8.648;2022-12-18T14:37:25;55.90;;;24.93;;
29240;SDS011;16268;49.880;8.648;2022-12-18T14:39:52;55.87;;;25.33;;
29240;SDS011;16268;49.880;8.648;2022-12-18T14:42:28;61.43;;;25.57;;
29240;SDS011;16268;49.880;8.648;2022-12-18T14:47:59;52.77;;;24.37;;
29240;SDS011;16268;49.880;8.648;2022-12-18T14:50:25;55.27;;;24.73;;
29240;SDS011;16268;49.880;8.648;2022-12-18T14:52:51;60.33;;;25.90;;
29240;SDS011;16268;49.880;8.648;2022-12-18T14:55:17;55.33;;;24.00;;
29240;SDS011;16268;49.880;8.648;2022-12-18T14:57:45;57.90;;;25.77;;
29240;SDS011;16268;49.880;8.648;2022-12-18T15:00:15;57.00;;;24.80;;
29240;SDS011;16268;49.880;8.648;2022-12-18T15:02:44;55.55;;;24.65;;
29240;SDS011;16268;49.880;8.648;2022-12-18T15:07:42;57.20;;;24.37;;
29240;SDS011;16268;49.880;8.648;2022-12-18T15:20:31;58.00;;;25.40;;
29240;SDS011;16268;49.880;8.648;2022-12-18T15:23:04;58.13;;;25.00;;
29240;SDS011;16268;49.880;8.648;2022-12-18T15:25:34;58.10;;;25.87;;
29240;SDS011;16268;49.880;8.648;2022-12-18T15:28:02;55.30;;;25.10;;
29240;SDS011;16268;49.880;8.648;2022-12-18T15:30:29;63.13;;;24.93;;
29240;SDS011;16268;49.880;8.648;2022-12-18T15:36:00;57.50;;;25.67;;
29240;SDS011;16268;49.880;8.648;2022-12-18T15:38:33;63.57;;;25.23;;
29240;SDS011;16268;49.880;8.648;2022-12-18T15:40:59;58.57;;;25.07;;
29240;SDS011;16268;49.880;8.648;2022-12-18T15:43:25;60.30;;;25.80;;
29240;SDS011;16268;49.880;8.648;2022-12-18T15:48:27;55.70;;;25.33;;
29240;SDS011;16268;49.880;8.648;2022-12-18T15:50:53;59.90;;;26.03;;
29240;SDS011;16268;49.880;8.648;2022-12-18T15:53:22;55.83;;;26.10;;
29240;SDS011;16268;49.880;8.648;2022-12-18T15:55:49;62.67;;;26.70;;
29240;SDS011;16268;49.880;8.648;2022-12-18T15:58:34;58.37;;;25.07;;
29240;SDS011;16268;49.880;8.648;2022-12-18T16:00:59;61.90;;;25.93;;
29240;SDS011;16268;49.880;8.648;2022-12-18T16:03:25;59.77;;;28.03;;
29240;SDS011;16268;49.880;8.648;2022-12-18T16:05:51;58.63;;;25.90;;
29240;SDS011;16268;49.880;8.648;2022-12-18T16:08:17;56.10;;;25.37;;
29240;SDS011;16268;49.880;8.648;2022-12-18T16:10:42;55.20;;;25.00;;
29240;SDS011;16268;49.880;8.648;2022-12-18T16:13:11;55.17;;;25.30;;
29240;SDS011;16268;49.880;8.648;2022-12-18T16:15:40;57.20;;;25.43;;
29240;SDS011;16268;49.880;8.648;2022-12-18T16:18:06;56.00;;;25.60;;
29240;SDS011;16268;49.880;8.648;2022-12-18T16:20:32;58.47;;;25.83;;
29240;SDS011;16268;49.880;8.648;2022-12-18T16:22:57;51.17;;;24.40;;
29240;SDS011;16268;49.880;8.648;2022-12-18T16:25:24;56.50;;;24.83;;
29240;SDS011;16268;49.880;8.648;2022-12-18T16:27:51;59.10;;;25.10;;
29240;SDS011;16268;49.880;8.648;2022-12-18T16:30:20;55.47;;;24.90;;
29240;SDS011;16268;49.880;8.648;2022-12-18T16:32:52;61.27;;;27.30;;
29240;SDS011;16268;49.880;8.648;2022-12-18T16:35:18;57.37;;;26.20;;
29240;SDS011;16268;49.880;8.648;2022-12-18T16:37:44;59.00;;;25.60;;
29240;SDS011;16268;49.880;8.648;2022-12-18T16:40:10;59.00;;;25.20;;
29240;SDS011;16268;49.880;8.648;2022-12-18T16:42:38;55.47;;;25.80;;
29240;SDS011;16268;49.880;8.648;2022-12-18T16:45:06;58.30;;;27.00;;